Wednesday, November 14, 2018, 9:47 PM EST
Back to Local

KPHL, Philadelphia International Airpt

Location: Philadelphia, PA, United States Lat: 39.867
Local Time: 9:47 PM EST ( 2:47 GMT) Lon: -75.233
Time Zone: US/Eastern Elev: 19 ft

Show me the last for .
Show Decoded

2018-11-14 20:54 METAR KPHL 150154Z 36009KT 10SM OVC240 02/M09 A3057 RMK AO2 SLP350 T00221094 $ =
2018-11-14 19:54 METAR KPHL 150054Z 36007KT 10SM OVC240 02/M09 A3054 RMK AO2 SLP341 T00221089 =
2018-11-14 18:54 METAR KPHL 142354Z 02011G17KT 10SM OVC230 03/M09 A3052 RMK AO2 SLP335 T00331094
                 10067 20033 51016 =
2018-11-14 17:54 METAR KPHL 142254Z 36010KT 10SM OVC230 04/M09 A3051 RMK AO2 SLP331 T00391089 =
2018-11-14 16:54 METAR KPHL 142154Z 34009KT 10SM OVC250 04/M09 A3050 RMK AO2 SLP326 T00441094 =
2018-11-14 15:54 METAR KPHL 142054Z 31012KT 10SM BKN250 05/M10 A3048 RMK AO2 SLP319 T00501100
                 53015 =
2018-11-14 14:54 METAR KPHL 141954Z 33009KT 10SM FEW230 BKN260 06/M09 A3045 RMK AO2 SLP311
                 T00561094 =
2018-11-14 13:54 METAR KPHL 141854Z 32012KT 10SM FEW050 FEW230 BKN260 06/M08 A3044 RMK AO2 SLP306
                 T00611078 =
2018-11-14 12:54 METAR KPHL 141754Z 32014G19KT 10SM FEW050 FEW230 BKN260 06/M08 A3043 RMK AO2
                 SLP304 60000 T00561078 10061 20028 58003 =
2018-11-14 11:54 METAR KPHL 141654Z 31015KT 10SM FEW050 FEW230 BKN260 06/M08 A3044 RMK AO2 SLP306
                 T00561078 =
2018-11-14 10:54 METAR KPHL 141554Z 30013KT 10SM FEW047 SCT230 BKN260 04/M08 A3045 RMK AO2 SLP312
                 T00441078 =
2018-11-14 09:54 METAR KPHL 141454Z 34015G22KT 10SM FEW046 SCT230 BKN260 04/M08 A3044 RMK AO2
                 SLP308 T00391078 51023 =
2018-11-14 08:54 METAR KPHL 141354Z 31011G18KT 10SM FEW045 SCT230 BKN260 04/M07 A3042 RMK AO2
                 SLP302 P0000 T00391067 =
2018-11-14 07:54 METAR KPHL 141254Z 29007KT 10SM FEW045 SCT240 OVC260 03/M06 A3041 RMK AO2 PRESRR
                 SLP296 T00331056 =
2018-11-14 06:54 METAR KPHL 141154Z 28007KT 10SM FEW045 OVC250 03/M05 A3037 RMK AO2 SLP285 70004
                 T00331050 10056 20028 51032 =
2018-11-14 05:54 METAR KPHL 141054Z 27010KT 10SM OVC250 03/M06 A3035 RMK AO2 SLP277 T00331056 =
2018-11-14 04:54 METAR KPHL 140954Z 29009KT 10SM FEW200 OVC250 04/M06 A3031 RMK AO2 SLP263
                 T00391061 =
2018-11-14 03:54 METAR KPHL 140854Z 30010G16KT 10SM FEW200 OVC250 04/M07 A3028 RMK AO2 SLP253
                 T00391067 51019 =
2018-11-14 02:54 METAR KPHL 140754Z 29011KT 10SM SCT190 OVC230 04/M06 A3026 RMK AO2 SLP247
                 T00441056 =
2018-11-14 01:54 METAR KPHL 140654Z 28009KT 10SM FEW180 OVC230 05/M04 A3025 RMK AO2 SLP242
                 T00501044 =
2018-11-14 00:54 METAR KPHL 140554Z 29013G21KT 10SM FEW180 OVC230 06/M04 A3022 RMK AO2 SLP234
                 T00561044 10072 20056 51017 =
2018-11-13 23:54 METAR KPHL 140454Z 28009KT 10SM SCT180 OVC230 06/M03 A3022 RMK AO2 SLP232
                 T00611033 401000061 =
2018-11-13 22:54 METAR KPHL 140354Z 29009KT 10SM SCT090 OVC220 07/M01 A3018 RMK AO2 SLP221
                 T00671011 =
2018-11-13 21:54 METAR KPHL 140254Z 29009KT 10SM FEW100 OVC220 07/00 A3017 RMK AO2 SLP217
                 T00720000 53026 =

Support USWX by starting your Amazon purchase here.